Time;durP1;ratioP1;P1;durP2;ratioP2;P2;SDS_P1;SDS_P2;PMS_P1;PMS_P2;Temp;Humidity;BMP_temperature;BMP_pressure;BME280_temperature;BME280_humidity;BME280_pressure;Samples;Min_cycle;Max_cycle;Signal;HPM_P1;HPM_P2
2022/01/23 00:00:17;;;;;;;15.32;13.63;;;8.10;99.90;;;;;;5074065;28;21034;-64
2022/01/23 00:02:47;;;;;;;20.92;15.85;;;8.10;99.90;;;;;;5073665;28;20304;-64
2022/01/23 00:05:13;;;;;;;27.90;18.48;;;8.10;99.90;;;;;;5074654;28;20378;-64
2022/01/23 00:07:43;;;;;;;19.73;17.08;;;8.10;99.90;;;;;;5074394;28;20262;-64
2022/01/23 00:10:11;;;;;;;18.30;16.30;;;8.20;99.90;;;;;;5074357;28;20306;-64
2022/01/23 00:12:45;;;;;;;21.63;14.45;;;8.20;99.90;;;;;;5074391;28;20893;-65
2022/01/23 00:17:56;;;;;;;13.02;11.70;;;8.20;99.90;;;;;;5075433;28;20283;-64
2022/01/23 00:20:23;;;;;;;15.90;12.40;;;8.20;99.90;;;;;;5081339;28;20226;-64
2022/01/23 00:22:55;;;;;;;13.05;11.35;;;8.20;99.90;;;;;;5057549;28;20219;-64
2022/01/23 00:30:54;;;;;;;12.95;11.65;;;8.30;99.90;;;;;;5073803;28;20229;-65
2022/01/23 00:33:23;;;;;;;14.65;10.57;;;8.30;99.90;;;;;;5074295;28;20220;-64
2022/01/23 00:35:50;;;;;;;14.43;11.82;;;8.30;99.90;;;;;;5073572;28;20223;-64
2022/01/23 00:38:19;;;;;;;13.43;11.00;;;8.30;99.90;;;;;;5061242;28;20220;-64
2022/01/23 00:40:48;;;;;;;15.90;11.82;;;8.40;99.90;;;;;;5074066;28;20227;-65
2022/01/23 00:43:26;;;;;;;12.30;9.68;;;8.40;99.90;;;;;;5085279;28;20223;-64
2022/01/23 00:45:57;;;;;;;11.30;10.10;;;8.40;99.90;;;;;;5072157;28;20267;-65
2022/01/23 00:48:34;;;;;;;10.57;9.48;;;8.40;99.90;;;;;;5074066;28;20313;-65
2022/01/23 00:51:01;;;;;;;11.25;10.15;;;8.40;99.90;;;;;;5073420;28;20326;-64
2022/01/23 00:53:31;;;;;;;12.80;10.88;;;8.50;99.90;;;;;;5073740;28;20253;-65
2022/01/23 00:55:58;;;;;;;11.55;10.40;;;8.50;99.90;;;;;;5066150;28;20225;-64
2022/01/23 00:58:25;;;;;;;9.65;8.65;;;8.40;99.90;;;;;;5072178;28;20265;-64
2022/01/23 01:00:52;;;;;;;13.13;9.85;;;8.50;99.90;;;;;;5073167;28;20269;-64
2022/01/23 01:03:19;;;;;;;10.95;9.75;;;8.50;99.90;;;;;;5073389;28;20566;-65
2022/01/23 01:05:46;;;;;;;10.00;9.00;;;8.50;99.90;;;;;;5073727;28;20231;-65
2022/01/23 01:08:13;;;;;;;10.60;9.48;;;8.50;99.90;;;;;;5073075;28;20229;-65
2022/01/23 01:10:49;;;;;;;13.38;9.68;;;8.50;99.90;;;;;;5073515;28;20235;-64
2022/01/23 01:13:16;;;;;;;9.60;8.63;;;8.50;99.90;;;;;;5060541;28;20665;-64
2022/01/23 01:16:00;;;;;;;11.70;10.50;;;8.50;99.90;;;;;;5073472;28;20224;-64
2022/01/23 01:32:14;;;;;;;9.57;8.57;;;8.40;99.90;;;;;;5072859;28;20703;-64
2022/01/23 01:34:45;;;;;;;7.80;6.90;;;8.40;99.90;;;;;;5073084;28;20557;-64
2022/01/23 01:37:13;;;;;;;8.25;7.40;;;8.40;99.90;;;;;;5072342;28;20228;-64
2022/01/23 01:39:40;;;;;;;8.43;7.60;;;8.40;99.90;;;;;;5072790;28;20612;-64
2022/01/23 01:42:09;;;;;;;8.95;7.32;;;8.50;99.90;;;;;;5085638;28;20227;-64
2022/01/23 01:44:36;;;;;;;7.15;5.65;;;8.50;99.90;;;;;;5072617;28;20220;-64
2022/01/23 01:47:03;;;;;;;7.10;6.28;;;8.50;99.90;;;;;;5072086;28;20224;-64
2022/01/23 01:49:32;;;;;;;7.88;6.53;;;8.50;99.90;;;;;;5072711;28;20218;-64
2022/01/23 01:52:04;;;;;;;8.15;7.35;;;8.50;99.90;;;;;;5072694;28;20285;-64
2022/01/23 01:54:33;;;;;;;7.43;6.68;;;8.50;99.90;;;;;;5072510;28;20214;-64
2022/01/23 01:57:08;;;;;;;6.50;5.88;;;8.50;99.90;;;;;;5069971;28;20689;-64
2022/01/23 02:00:11;;;;;;;7.13;6.20;;;8.50;99.90;;;;;;5072575;28;20222;-64
2022/01/23 02:02:54;;;;;;;8.48;6.85;;;8.50;99.90;;;;;;5070411;28;20245;-64
2022/01/23 02:08:24;;;;;;;6.43;5.82;;;8.50;99.90;;;;;;5060204;28;20778;-64
2022/01/23 02:10:56;;;;;;;6.22;5.63;;;8.50;99.90;;;;;;5072962;28;20238;-64
2022/01/23 02:13:28;;;;;;;6.35;5.50;;;8.50;99.90;;;;;;5072341;28;21296;-64
2022/01/23 02:24:36;;;;;;;5.22;4.72;;;8.60;99.90;;;;;;5072342;28;20733;-64
2022/01/23 02:51:59;;;;;;;4.70;4.40;;;8.70;99.90;;;;;;5059213;28;20293;-65
2022/01/23 02:57:19;;;;;;;7.22;6.00;;;8.70;99.90;;;;;;5068439;28;20231;-64
2022/01/23 02:59:46;;;;;;;6.18;5.25;;;8.70;99.90;;;;;;5082316;28;20601;-64
2022/01/23 03:02:25;;;;;;;5.93;5.32;;;8.60;99.90;;;;;;5075496;28;20224;-64
2022/01/23 03:04:54;;;;;;;5.72;5.20;;;8.70;99.90;;;;;;5063329;28;20258;-65
2022/01/23 03:07:47;;;;;;;7.00;5.53;;;8.60;99.90;;;;;;5075516;28;20238;-65
2022/01/23 03:10:20;;;;;;;5.38;4.88;;;8.60;99.90;;;;;;5075496;28;20251;-65
2022/01/23 03:15:55;;;;;;;6.93;6.22;;;8.60;99.90;;;;;;5071179;28;21285;-65
2022/01/23 03:26:39;;;;;;;6.75;5.22;;;8.60;99.90;;;;;;5075405;28;20289;-65
2022/01/23 03:29:19;;;;;;;5.68;5.07;;;8.60;99.90;;;;;;5074808;28;20231;-65
2022/01/23 03:32:01;;;;;;;6.30;5.70;;;8.60;99.90;;;;;;5075390;28;20227;-65
2022/01/23 03:34:28;;;;;;;5.57;5.03;;;8.60;99.90;;;;;;5075667;28;20536;-65
2022/01/23 03:36:57;;;;;;;7.45;6.30;;;8.60;99.90;;;;;;5075180;28;20273;-65
2022/01/23 03:39:24;;;;;;;6.30;5.20;;;8.50;99.90;;;;;;5075159;28;20289;-65
2022/01/23 03:41:52;;;;;;;5.45;4.95;;;8.60;99.90;;;;;;5074829;28;20258;-65
2022/01/23 03:44:22;;;;;;;5.70;5.07;;;8.60;99.90;;;;;;5075394;28;20227;-65
2022/01/23 03:47:01;;;;;;;5.60;5.00;;;8.60;99.90;;;;;;5074641;28;20266;-65
2022/01/23 03:49:33;;;;;;;5.72;5.13;;;8.60;99.90;;;;;;5075030;28;20307;-65
2022/01/23 03:52:05;;;;;;;4.88;4.47;;;8.60;99.90;;;;;;5075069;28;21010;-65
2022/01/23 03:54:32;;;;;;;6.47;5.80;;;8.60;99.90;;;;;;5075131;28;20568;-65
2022/01/23 03:57:02;;;;;;;6.30;5.57;;;8.60;99.90;;;;;;5068042;28;20224;-65
2022/01/23 03:59:31;;;;;;;5.28;4.78;;;8.50;99.90;;;;;;5074894;28;20227;-65
2022/01/23 04:01:58;;;;;;;5.70;5.20;;;8.50;99.90;;;;;;5074699;28;20669;-65
2022/01/23 04:04:38;;;;;;;6.05;5.45;;;8.60;99.90;;;;;;5074425;28;20219;-65
2022/01/23 04:07:07;;;;;;;5.00;4.28;;;8.60;99.90;;;;;;5073980;28;20219;-65
2022/01/23 04:09:33;;;;;;;6.25;5.35;;;8.60;99.90;;;;;;5074725;28;20227;-65
2022/01/23 04:12:03;;;;;;;5.88;5.30;;;8.60;99.90;;;;;;5074546;28;20228;-65
2022/01/23 04:14:35;;;;;;;4.97;4.47;;;8.60;99.90;;;;;;5062255;28;20217;-65
2022/01/23 04:17:44;;;;;;;5.00;4.57;;;8.60;99.90;;;;;;5073970;28;20243;-65
2022/01/23 04:34:11;;;;;;;6.93;6.03;;;8.60;99.90;;;;;;5074009;28;20719;-65
2022/01/23 05:01:17;;;;;;;5.30;4.75;;;8.50;99.90;;;;;;5073216;28;20262;-65
2022/01/23 05:06:28;;;;;;;5.60;4.38;;;8.50;99.90;;;;;;5073121;28;20245;-65
2022/01/23 05:08:55;;;;;;;4.50;4.10;;;8.50;99.90;;;;;;5073488;28;20605;-65
2022/01/23 05:11:21;;;;;;;5.80;5.20;;;8.60;99.90;;;;;;5072992;28;20232;-65
2022/01/23 05:13:48;;;;;;;6.13;5.03;;;8.60;99.90;;;;;;5073554;28;20230;-65
2022/01/23 05:16:18;;;;;;;5.97;5.30;;;8.60;99.90;;;;;;5072982;28;20365;-65
2022/01/23 05:18:45;;;;;;;4.70;4.22;;;8.60;99.90;;;;;;5072761;28;20229;-65
2022/01/23 05:21:36;;;;;;;5.18;4.68;;;8.60;99.90;;;;;;5072528;28;20234;-65
2022/01/23 05:24:04;;;;;;;6.00;4.80;;;8.60;99.90;;;;;;5072741;28;20239;-65
2022/01/23 05:26:35;;;;;;;5.65;5.05;;;8.60;99.90;;;;;;5080263;28;20248;-65
2022/01/23 05:29:04;;;;;;;5.00;4.47;;;8.60;99.90;;;;;;5081398;28;20228;-65
2022/01/23 05:31:32;;;;;;;6.10;5.40;;;8.60;99.90;;;;;;5070651;28;20230;-65
2022/01/23 05:33:59;;;;;;;5.57;4.97;;;8.60;99.90;;;;;;5073097;28;20689;-65
2022/01/23 05:36:26;;;;;;;5.97;5.35;;;8.60;99.90;;;;;;5072750;28;20237;-65
2022/01/23 05:38:53;;;;;;;8.02;5.65;;;8.50;99.90;;;;;;5073091;28;20219;-65
2022/01/23 05:41:20;;;;;;;5.20;4.70;;;8.50;99.90;;;;;;5072587;28;20242;-65
2022/01/23 05:43:47;;;;;;;6.38;4.93;;;8.50;99.90;;;;;;5073182;28;20237;-64
2022/01/23 05:46:14;;;;;;;5.95;5.45;;;8.50;99.90;;;;;;5072682;28;20238;-65
2022/01/23 05:48:42;;;;;;;5.30;4.80;;;8.60;99.90;;;;;;5072934;28;20226;-65
2022/01/23 05:51:12;;;;;;;5.30;4.80;;;8.60;99.90;;;;;;5072740;28;20243;-65
2022/01/23 05:53:39;;;;;;;6.53;5.90;;;8.60;99.90;;;;;;5072923;28;20224;-65
2022/01/23 05:56:06;;;;;;;6.07;5.47;;;8.60;99.90;;;;;;5072810;28;20224;-65
2022/01/23 05:58:33;;;;;;;5.22;4.68;;;8.60;99.90;;;;;;5072593;28;20220;-65
2022/01/23 06:01:00;;;;;;;6.07;5.40;;;8.60;99.90;;;;;;5072726;28;20280;-65
2022/01/23 06:03:27;;;;;;;7.38;5.90;;;8.60;99.90;;;;;;5072330;28;20570;-65
2022/01/23 06:05:55;;;;;;;6.32;5.72;;;8.60;99.90;;;;;;5072570;28;20223;-65
2022/01/23 06:08:23;;;;;;;8.13;5.82;;;8.70;99.90;;;;;;5072234;28;20223;-65
2022/01/23 06:10:56;;;;;;;6.97;6.28;;;8.70;99.90;;;;;;5072846;28;20552;-65
2022/01/23 06:13:23;;;;;;;7.05;5.93;;;8.60;99.90;;;;;;5059832;28;20234;-65
2022/01/23 06:15:50;;;;;;;6.88;6.20;;;8.60;99.90;;;;;;5074038;28;20224;-65
2022/01/23 06:18:17;;;;;;;7.53;5.82;;;8.60;99.90;;;;;;5072302;28;20227;-65
2022/01/23 06:20:44;;;;;;;8.50;6.75;;;8.60;99.90;;;;;;5072594;28;20232;-65
2022/01/23 06:23:12;;;;;;;8.80;6.95;;;8.60;99.90;;;;;;5072118;28;20223;-65
2022/01/23 06:25:43;;;;;;;8.43;6.72;;;8.60;99.90;;;;;;5073575;28;20251;-65
2022/01/23 06:28:11;;;;;;;7.03;6.32;;;8.60;99.90;;;;;;5075548;28;20687;-65
2022/01/23 06:30:38;;;;;;;8.98;8.10;;;8.60;99.90;;;;;;5072054;28;20228;-65
2022/01/23 06:33:06;;;;;;;8.30;7.50;;;8.60;99.90;;;;;;5072516;28;20224;-65
2022/01/23 06:35:35;;;;;;;8.40;7.30;;;8.60;99.90;;;;;;5076954;28;20672;-65
2022/01/23 06:38:02;;;;;;;9.18;7.05;;;8.60;99.90;;;;;;5072135;28;20580;-65
2022/01/23 06:40:30;;;;;;;7.65;6.68;;;8.60;99.90;;;;;;5072018;28;20228;-65
2022/01/23 06:42:57;;;;;;;9.05;6.85;;;8.60;99.90;;;;;;5071125;28;20237;-65
2022/01/23 06:45:24;;;;;;;8.15;7.28;;;8.60;99.90;;;;;;5069643;28;20236;-65
2022/01/23 06:47:51;;;;;;;7.82;7.15;;;8.60;99.90;;;;;;5070855;28;20220;-65
2022/01/23 06:50:21;;;;;;;8.18;6.75;;;8.60;99.90;;;;;;5071100;28;20250;-64
2022/01/23 06:52:48;;;;;;;7.38;6.60;;;8.60;99.90;;;;;;5073342;28;20229;-66
2022/01/23 06:55:17;;;;;;;9.48;7.63;;;8.60;99.90;;;;;;5071179;28;20224;-63
2022/01/23 06:57:45;;;;;;;7.93;7.13;;;8.60;99.90;;;;;;5072000;28;20306;-64
2022/01/23 07:00:12;;;;;;;7.40;6.70;;;8.60;99.90;;;;;;5072109;28;20598;-65
2022/01/23 07:02:39;;;;;;;8.13;6.95;;;8.70;99.90;;;;;;5071915;28;20220;-66
2022/01/23 07:05:06;;;;;;;7.10;6.40;;;8.60;99.90;;;;;;5077247;28;20220;-66
2022/01/23 07:07:33;;;;;;;6.95;6.35;;;8.60;99.90;;;;;;5071650;28;20224;-65
2022/01/23 07:10:00;;;;;;;7.15;6.45;;;8.60;99.90;;;;;;5072161;28;20319;-65
2022/01/23 07:12:27;;;;;;;7.97;7.10;;;8.60;99.90;;;;;;5071604;28;20223;-64
2022/01/23 07:14:55;;;;;;;8.07;7.28;;;8.60;99.90;;;;;;5072085;28;20681;-64
2022/01/23 07:17:22;;;;;;;7.75;6.95;;;8.60;99.90;;;;;;5071778;28;20223;-64
2022/01/23 07:19:49;;;;;;;7.70;6.88;;;8.60;99.90;;;;;;5071193;28;20231;-64
2022/01/23 07:22:16;;;;;;;10.95;7.45;;;8.60;99.90;;;;;;5074950;28;20223;-64
2022/01/23 07:24:43;;;;;;;7.50;6.65;;;8.60;99.90;;;;;;5071945;28;20988;-64
2022/01/23 07:27:16;;;;;;;8.57;7.68;;;8.60;99.90;;;;;;5072314;28;20562;-64
2022/01/23 07:29:44;;;;;;;10.65;7.07;;;8.60;99.90;;;;;;5071326;28;20231;-64
2022/01/23 07:32:12;;;;;;;8.90;8.00;;;8.70;99.90;;;;;;5072082;28;20234;-64
2022/01/23 07:34:39;;;;;;;10.25;7.57;;;8.70;99.90;;;;;;5071372;28;20231;-64
2022/01/23 07:37:06;;;;;;;6.95;6.25;;;8.70;99.90;;;;;;5071844;28;20245;-64
2022/01/23 07:39:33;;;;;;;8.20;7.28;;;8.70;99.90;;;;;;5079934;28;20661;-64
2022/01/23 07:42:00;;;;;;;7.28;6.55;;;8.70;99.90;;;;;;5078827;28;20223;-65
2022/01/23 07:44:27;;;;;;;8.20;7.40;;;8.70;99.90;;;;;;5074855;28;20222;-65
2022/01/23 07:46:54;;;;;;;8.57;7.35;;;8.70;99.90;;;;;;5075400;28;20691;-65
2022/01/23 07:49:22;;;;;;;12.68;9.40;;;8.70;99.90;;;;;;5074839;28;20226;-65
2022/01/23 07:51:49;;;;;;;9.90;8.20;;;8.70;99.90;;;;;;5074996;28;20236;-65
2022/01/23 07:54:16;;;;;;;8.98;7.95;;;8.70;99.90;;;;;;5075373;28;20220;-65
2022/01/23 07:56:43;;;;;;;9.55;8.63;;;8.70;99.90;;;;;;5074911;28;20231;-65
2022/01/23 07:59:10;;;;;;;8.85;7.60;;;8.80;99.90;;;;;;5075282;28;20234;-65
2022/01/23 08:01:39;;;;;;;9.25;8.10;;;8.80;99.90;;;;;;5074502;28;20699;-65
2022/01/23 08:04:06;;;;;;;9.38;8.05;;;8.80;99.90;;;;;;5075146;28;20226;-65
2022/01/23 08:06:40;;;;;;;10.20;9.20;;;8.70;99.90;;;;;;5074429;28;20228;-65
2022/01/23 08:09:07;;;;;;;10.38;8.82;;;8.70;99.90;;;;;;5075243;28;20247;-65
2022/01/23 08:11:35;;;;;;;9.75;8.55;;;8.80;99.90;;;;;;5074333;28;20741;-65
2022/01/23 08:14:02;;;;;;;11.55;9.00;;;8.80;99.90;;;;;;5074831;28;20224;-65
2022/01/23 08:16:29;;;;;;;10.52;9.43;;;8.80;99.90;;;;;;5074322;28;20234;-65
2022/01/23 08:18:56;;;;;;;10.57;9.07;;;8.80;99.90;;;;;;5074717;28;20281;-65
2022/01/23 08:21:22;;;;;;;8.82;7.93;;;8.80;99.90;;;;;;5074091;28;20234;-65
2022/01/23 08:23:52;;;;;;;8.80;6.40;;;8.90;99.90;;;;;;5074664;28;20681;-65
2022/01/23 08:26:21;;;;;;;8.15;7.35;;;8.90;99.90;;;;;;5074212;28;20585;-65
2022/01/23 08:28:48;;;;;;;8.10;6.55;;;8.90;99.90;;;;;;5074141;28;20220;-65
2022/01/23 08:31:15;;;;;;;9.57;7.78;;;9.00;99.90;;;;;;5074267;28;20230;-65
2022/01/23 08:33:41;;;;;;;10.18;8.25;;;9.00;99.90;;;;;;5074135;28;20296;-65
2022/01/23 08:36:08;;;;;;;9.15;8.05;;;8.90;99.90;;;;;;5074474;28;20681;-65
2022/01/23 08:38:35;;;;;;;8.40;7.55;;;9.00;99.90;;;;;;5073732;28;20745;-65
2022/01/23 08:43:49;;;;;;;15.43;9.38;;;9.00;99.90;;;;;;5073840;28;20239;-65
2022/01/23 08:46:16;;;;;;;10.00;7.72;;;9.00;99.90;;;;;;5074198;28;20288;-65
2022/01/23 08:48:43;;;;;;;10.73;7.60;;;9.00;99.90;;;;;;5073749;28;20249;-65
2022/01/23 08:51:10;;;;;;;10.85;7.50;;;9.00;99.90;;;;;;5074077;28;20223;-65
2022/01/23 08:53:37;;;;;;;7.57;6.72;;;9.10;99.90;;;;;;5073826;28;20227;-65
2022/01/23 08:56:06;;;;;;;8.00;5.35;;;9.00;99.90;;;;;;5073964;28;20215;-65
2022/01/23 08:58:33;;;;;;;8.93;7.40;;;9.00;99.90;;;;;;5073597;28;20231;-65
2022/01/23 09:00:59;;;;;;;9.48;6.32;;;9.00;99.90;;;;;;5073854;28;20227;-65
2022/01/23 09:03:26;;;;;;;7.10;6.00;;;9.10;99.90;;;;;;5073389;28;20234;-65
2022/01/23 09:05:53;;;;;;;9.98;7.63;;;9.10;99.90;;;;;;5073886;28;20224;-65
2022/01/23 09:08:21;;;;;;;9.15;8.07;;;9.10;99.90;;;;;;5073600;28;20220;-65
2022/01/23 09:10:55;;;;;;;8.20;7.07;;;9.10;99.90;;;;;;5073235;28;20681;-65
2022/01/23 09:13:33;;;;;;;10.60;8.23;;;9.10;99.90;;;;;;5067251;28;20225;-65
2022/01/23 09:16:01;;;;;;;10.90;9.32;;;9.20;99.90;;;;;;5073277;28;20620;-65
2022/01/23 09:18:28;;;;;;;7.55;6.80;;;9.20;99.90;;;;;;5073853;28;20251;-65
2022/01/23 09:20:55;;;;;;;9.50;7.95;;;9.20;99.90;;;;;;5072965;28;20239;-65
2022/01/23 09:23:21;;;;;;;11.07;9.07;;;9.20;99.90;;;;;;5073675;28;20227;-65
2022/01/23 09:25:49;;;;;;;10.85;8.93;;;9.20;99.90;;;;;;5072903;28;20225;-65
2022/01/23 09:28:18;;;;;;;9.88;7.68;;;9.30;99.90;;;;;;5073233;28;20311;-64
2022/01/23 09:30:51;;;;;;;8.80;7.60;;;9.30;99.90;;;;;;5072951;28;20224;-65
2022/01/23 09:33:18;;;;;;;9.63;7.60;;;9.30;99.90;;;;;;5073434;28;20543;-63
2022/01/23 09:35:44;;;;;;;8.45;6.85;;;9.30;99.90;;;;;;5072812;28;20226;-64
2022/01/23 09:38:11;;;;;;;7.20;6.25;;;9.30;99.90;;;;;;5073119;28;20228;-64
2022/01/23 09:40:41;;;;;;;6.32;5.72;;;9.30;99.90;;;;;;5072589;28;20230;-65
2022/01/23 09:43:13;;;;;;;6.32;5.72;;;9.30;99.90;;;;;;5073273;28;20557;-65
2022/01/23 09:45:40;;;;;;;7.68;6.65;;;9.30;99.90;;;;;;5072098;28;20680;-64
2022/01/23 09:48:09;;;;;;;7.38;6.55;;;9.30;99.90;;;;;;5073237;28;20231;-64
2022/01/23 09:50:36;;;;;;;9.63;7.35;;;9.30;99.90;;;;;;5072392;28;20698;-64
2022/01/23 09:53:04;;;;;;;9.10;7.63;;;9.40;99.90;;;;;;5072381;28;20301;-64
2022/01/23 09:55:32;;;;;;;7.97;6.70;;;9.30;99.90;;;;;;5073379;28;20345;-64
2022/01/23 09:57:59;;;;;;;8.60;7.07;;;9.40;99.90;;;;;;5072626;28;20231;-64
2022/01/23 10:00:28;;;;;;;8.45;7.00;;;9.40;99.90;;;;;;5073019;28;20699;-64
2022/01/23 10:02:57;;;;;;;8.27;7.47;;;9.40;99.90;;;;;;5072226;28;20303;-64
2022/01/23 10:05:26;;;;;;;7.50;6.70;;;9.40;99.90;;;;;;5072824;28;20724;-64
2022/01/23 10:07:54;;;;;;;6.95;6.00;;;9.40;99.90;;;;;;5072341;28;20715;-65
2022/01/23 10:10:26;;;;;;;6.53;5.90;;;9.40;99.90;;;;;;5072859;28;20570;-64
2022/01/23 10:12:56;;;;;;;6.82;6.22;;;9.40;99.90;;;;;;5072519;28;20697;-64
2022/01/23 10:15:25;;;;;;;6.43;5.22;;;9.40;99.90;;;;;;5072778;28;20225;-64
2022/01/23 10:17:53;;;;;;;5.43;4.88;;;9.40;99.90;;;;;;5072316;28;20316;-64
2022/01/23 10:20:20;;;;;;;6.03;5.38;;;9.40;99.90;;;;;;5072780;28;20237;-64
2022/01/23 10:22:51;;;;;;;5.53;4.47;;;9.40;99.90;;;;;;5072408;28;20228;-65
2022/01/23 10:25:19;;;;;;;6.43;5.80;;;9.40;99.90;;;;;;5072648;28;20285;-65
2022/01/23 10:27:55;;;;;;;5.78;5.03;;;9.40;99.90;;;;;;5072206;28;20227;-65
2022/01/23 10:30:24;;;;;;;7.68;6.85;;;9.50;99.90;;;;;;5072607;28;20554;-65
2022/01/23 10:33:04;;;;;;;7.15;5.32;;;9.40;99.90;;;;;;5072216;28;20696;-65
2022/01/23 10:35:32;;;;;;;7.30;6.43;;;9.50;99.90;;;;;;5072832;28;20246;-65
2022/01/23 10:38:12;;;;;;;9.35;8.40;;;9.50;99.90;;;;;;5071965;28;20232;-65
2022/01/23 10:40:48;;;;;;;10.70;9.38;;;9.50;99.90;;;;;;5072499;28;20226;-63
2022/01/23 10:48:57;;;;;;;12.05;10.90;;;9.60;99.90;;;;;;5072212;28;20241;-65
2022/01/23 10:51:29;;;;;;;9.68;8.05;;;9.60;99.90;;;;;;5072507;28;20561;-65
2022/01/23 10:54:09;;;;;;;11.07;9.32;;;9.60;99.90;;;;;;5072068;28;20227;-64
2022/01/23 10:56:40;;;;;;;8.10;7.30;;;9.60;99.90;;;;;;5072550;28;20307;-64
2022/01/23 10:59:10;;;;;;;7.53;6.80;;;9.70;99.90;;;;;;5071814;28;20232;-65
2022/01/23 11:01:38;;;;;;;6.35;5.80;;;9.70;99.90;;;;;;5072248;28;20227;-65
2022/01/23 11:04:15;;;;;;;7.18;6.20;;;9.70;99.90;;;;;;5071892;28;20228;-65
2022/01/23 11:06:57;;;;;;;7.85;7.15;;;9.70;99.90;;;;;;5072260;28;20231;-65
2022/01/23 11:09:30;;;;;;;7.40;6.45;;;9.70;99.90;;;;;;5072207;28;20220;-65
2022/01/23 11:12:14;;;;;;;6.57;5.97;;;9.70;99.90;;;;;;5072334;28;20224;-66
2022/01/23 11:17:27;;;;;;;5.50;5.00;;;9.70;99.90;;;;;;5075759;28;20566;-64
2022/01/23 11:19:57;;;;;;;6.43;5.30;;;9.70;99.90;;;;;;5075653;28;20233;-65
2022/01/23 11:22:25;;;;;;;5.82;4.80;;;9.70;99.90;;;;;;5075716;28;20224;-65
2022/01/23 11:24:59;;;;;;;5.53;5.03;;;9.80;99.90;;;;;;5075293;28;20239;-65
2022/01/23 11:27:33;;;;;;;8.55;5.10;;;9.80;99.90;;;;;;5075856;28;20238;-65
2022/01/23 11:30:03;;;;;;;4.90;4.20;;;9.80;99.90;;;;;;5075626;28;20240;-65
2022/01/23 11:32:35;;;;;;;5.72;5.22;;;9.80;99.90;;;;;;5075782;28;20231;-63
2022/01/23 11:35:08;;;;;;;7.88;5.50;;;9.80;99.90;;;;;;5075108;28;20228;-65
2022/01/23 11:37:39;;;;;;;5.40;4.90;;;9.80;99.90;;;;;;5075802;28;20224;-64
2022/01/23 11:40:23;;;;;;;4.93;4.35;;;9.90;99.90;;;;;;5075450;28;21001;-64
2022/01/23 11:54:14;;;;;;;7.20;6.15;;;10.00;99.90;;;;;;5075413;28;20242;-64
2022/01/23 11:56:47;;;;;;;6.88;5.57;;;10.00;99.90;;;;;;5075338;28;20254;-64
2022/01/23 11:59:25;;;;;;;13.48;10.35;;;10.00;99.90;;;;;;5074821;28;20540;-65
2022/01/23 12:05:31;;;;;;;11.35;9.73;;;10.00;99.90;;;;;;5046608;28;20230;-64
2022/01/23 12:08:34;;;;;;;6.63;6.03;;;10.00;99.90;;;;;;5074701;28;20228;-64
2022/01/23 12:11:36;;;;;;;7.00;6.30;;;10.00;99.90;;;;;;5074653;28;20305;-66
2022/01/23 12:17:23;;;;;;;5.97;5.47;;;10.10;99.90;;;;;;5074828;28;21019;-65
2022/01/23 12:19:53;;;;;;;7.53;6.20;;;10.00;99.90;;;;;;5074889;28;20606;-64
2022/01/23 12:22:30;;;;;;;8.40;7.60;;;10.00;99.90;;;;;;5074388;28;20231;-64
2022/01/23 12:25:09;;;;;;;7.18;5.90;;;10.10;99.90;;;;;;5074371;28;20234;-64
2022/01/23 12:27:36;;;;;;;4.15;3.75;;;10.10;99.90;;;;;;5074313;28;20235;-66
2022/01/23 12:30:34;;;;;;;5.30;4.80;;;10.10;99.90;;;;;;5074208;28;20228;-64
2022/01/23 12:33:19;;;;;;;8.82;8.00;;;10.10;99.90;;;;;;5057945;28;20289;-64
2022/01/23 12:35:49;;;;;;;6.72;6.05;;;10.10;99.90;;;;;;5074720;28;20294;-65
2022/01/23 12:38:16;;;;;;;6.93;5.32;;;10.10;99.90;;;;;;5073819;28;20697;-63
2022/01/23 12:40:47;;;;;;;6.43;5.30;;;10.10;99.90;;;;;;5074172;28;20224;-64
2022/01/23 12:43:16;;;;;;;6.18;5.60;;;10.10;99.90;;;;;;5074222;28;20681;-65
2022/01/23 12:45:49;;;;;;;5.38;4.75;;;10.10;99.90;;;;;;5074420;28;20228;-64
2022/01/23 12:48:48;;;;;;;4.57;3.80;;;10.10;99.90;;;;;;5073835;28;20228;-65
2022/01/23 12:51:45;;;;;;;5.22;4.82;;;10.10;99.90;;;;;;5073792;28;20312;-64
2022/01/23 12:54:16;;;;;;;7.30;4.47;;;10.10;99.90;;;;;;5012282;28;20249;-64
2022/01/23 12:56:44;;;;;;;5.63;4.40;;;10.10;99.90;;;;;;5061296;28;20227;-65
2022/01/23 12:59:15;;;;;;;4.15;3.60;;;10.10;99.90;;;;;;5073749;28;20259;-64
2022/01/23 13:01:48;;;;;;;5.05;4.38;;;10.10;99.90;;;;;;5074045;28;20285;-64
2022/01/23 13:04:16;;;;;;;4.68;4.28;;;10.10;99.90;;;;;;5073534;28;20242;-65
2022/01/23 13:06:50;;;;;;;5.75;5.25;;;10.10;99.90;;;;;;5073755;28;20224;-64
2022/01/23 13:09:23;;;;;;;9.18;5.63;;;10.10;99.90;;;;;;5073717;28;20224;-65
2022/01/23 13:12:02;;;;;;;5.95;5.40;;;10.10;99.90;;;;;;5074002;28;20251;-65
2022/01/23 13:14:44;;;;;;;5.93;4.80;;;10.10;99.90;;;;;;5073753;28;20235;-65
2022/01/23 13:31:07;;;;;;;5.72;3.85;;;10.00;99.90;;;;;;5072790;28;21236;-64
2022/01/23 13:33:38;;;;;;;5.82;4.10;;;10.10;99.90;;;;;;5073214;28;20220;-64
2022/01/23 13:36:09;;;;;;;6.32;4.30;;;10.10;99.90;;;;;;5073245;28;20216;-64
2022/01/23 13:38:37;;;;;;;5.03;4.53;;;10.10;99.90;;;;;;5071372;28;20550;-64
2022/01/23 13:41:19;;;;;;;4.63;4.18;;;10.10;99.90;;;;;;5072076;28;20678;-65
2022/01/23 13:52:24;;;;;;;4.35;3.95;;;10.20;99.90;;;;;;5072790;28;20235;-65
2022/01/23 13:58:10;;;;;;;4.30;4.00;;;10.10;99.90;;;;;;5073191;28;20696;-65
2022/01/23 14:00:37;;;;;;;4.88;4.43;;;10.10;99.90;;;;;;5072645;28;20313;-65
2022/01/23 14:03:04;;;;;;;4.30;3.92;;;10.10;99.90;;;;;;5072918;28;20220;-65
2022/01/23 14:05:34;;;;;;;7.20;6.32;;;10.10;99.90;;;;;;5072407;28;20236;-65
2022/01/23 14:08:05;;;;;;;5.50;4.78;;;10.10;99.90;;;;;;5072715;28;20311;-65
2022/01/23 14:10:34;;;;;;;5.80;5.20;;;10.10;99.90;;;;;;5072082;28;20274;-65
2022/01/23 14:13:10;;;;;;;5.25;4.75;;;10.10;99.90;;;;;;5072912;28;20220;-65
2022/01/23 14:15:44;;;;;;;5.43;4.90;;;10.10;99.90;;;;;;5072336;28;20235;-65
2022/01/23 14:18:13;;;;;;;4.50;4.10;;;10.10;99.90;;;;;;5082046;28;20387;-65
2022/01/23 14:20:44;;;;;;;5.38;4.72;;;10.10;99.90;;;;;;5072218;28;20674;-65
2022/01/23 14:23:13;;;;;;;3.90;3.60;;;10.10;99.90;;;;;;5072628;28;20434;-65
2022/01/23 14:25:48;;;;;;;4.10;3.80;;;10.00;99.90;;;;;;5072288;28;20247;-65
2022/01/23 14:28:18;;;;;;;4.80;4.38;;;10.10;99.90;;;;;;5072270;28;20254;-65
2022/01/23 14:30:47;;;;;;;4.25;3.88;;;10.00;99.90;;;;;;5072137;28;20627;-65
2022/01/23 14:33:17;;;;;;;5.60;4.07;;;10.10;99.90;;;;;;5072535;28;20220;-65
2022/01/23 14:35:45;;;;;;;5.82;4.18;;;10.10;99.90;;;;;;5072041;28;20228;-65
2022/01/23 14:38:14;;;;;;;5.90;4.43;;;10.00;99.90;;;;;;5064022;28;20229;-65
2022/01/23 14:40:52;;;;;;;6.25;5.05;;;10.10;99.90;;;;;;5071907;28;20249;-64
2022/01/23 14:43:20;;;;;;;9.13;5.28;;;10.00;99.90;;;;;;5072329;28;20231;-65
2022/01/23 14:45:49;;;;;;;6.07;4.40;;;10.00;99.90;;;;;;5071768;28;21496;-64
2022/01/23 14:48:17;;;;;;;4.22;3.85;;;10.00;99.90;;;;;;5072399;28;20227;-64
2022/01/23 14:50:50;;;;;;;4.05;3.75;;;10.00;99.90;;;;;;5074536;28;20231;-65
2022/01/23 14:53:20;;;;;;;5.72;4.65;;;10.00;99.90;;;;;;5076266;28;20232;-64
2022/01/23 14:55:50;;;;;;;4.25;3.90;;;10.00;99.90;;;;;;5075934;28;20235;-64
2022/01/23 14:58:20;;;;;;;3.45;3.15;;;10.00;99.90;;;;;;5086334;28;20230;-65
2022/01/23 15:00:48;;;;;;;4.22;3.42;;;10.00;99.90;;;;;;5075800;28;20228;-65
2022/01/23 15:03:15;;;;;;;2.95;2.55;;;10.00;99.90;;;;;;5076101;28;20226;-65
2022/01/23 15:05:42;;;;;;;2.88;2.55;;;10.00;99.90;;;;;;5075956;28;20252;-65
2022/01/23 15:08:13;;;;;;;3.33;2.47;;;10.00;99.90;;;;;;5075852;28;20285;-65
2022/01/23 15:10:42;;;;;;;4.32;3.92;;;10.00;99.90;;;;;;5077236;28;20240;-65
2022/01/23 15:13:10;;;;;;;3.92;3.53;;;10.00;99.90;;;;;;5080119;28;20219;-65
2022/01/23 15:15:37;;;;;;;3.83;3.47;;;10.00;99.90;;;;;;5075507;28;20303;-65
2022/01/23 15:18:05;;;;;;;3.75;3.05;;;10.00;99.90;;;;;;5075567;28;20230;-65
2022/01/23 15:20:33;;;;;;;2.92;2.28;;;10.00;99.90;;;;;;5075332;28;20228;-65
2022/01/23 15:23:00;;;;;;;4.65;3.75;;;10.00;99.90;;;;;;5075383;28;20232;-65
2022/01/23 15:25:29;;;;;;;4.90;4.25;;;10.00;99.90;;;;;;5083646;28;20265;-65
2022/01/23 15:27:56;;;;;;;5.00;4.50;;;10.00;99.90;;;;;;5078202;28;20765;-65
2022/01/23 15:30:24;;;;;;;7.32;4.45;;;10.00;99.90;;;;;;5075691;28;20252;-65
2022/01/23 15:32:52;;;;;;;4.53;3.78;;;10.00;99.90;;;;;;5073628;28;20231;-65
2022/01/23 15:35:20;;;;;;;3.25;2.97;;;10.00;99.90;;;;;;5071215;28;20224;-64
2022/01/23 15:37:47;;;;;;;3.67;2.90;;;10.00;99.90;;;;;;5073348;28;20222;-64
2022/01/23 15:40:16;;;;;;;3.42;2.65;;;10.00;99.90;;;;;;5075196;28;20224;-64
2022/01/23 15:42:45;;;;;;;4.15;2.85;;;9.90;99.90;;;;;;5069454;28;20224;-64
2022/01/23 15:45:13;;;;;;;4.10;3.45;;;10.00;99.90;;;;;;5075250;28;20311;-64
2022/01/23 15:47:40;;;;;;;5.47;4.55;;;9.90;99.90;;;;;;5075588;28;20228;-64
2022/01/23 15:50:10;;;;;;;4.00;3.30;;;9.90;99.90;;;;;;5073884;28;20227;-64
2022/01/23 15:52:38;;;;;;;5.45;2.85;;;9.90;99.90;;;;;;5072825;28;20216;-64
2022/01/23 15:55:06;;;;;;;4.78;2.65;;;9.90;99.90;;;;;;5073529;28;20258;-65
2022/01/23 15:57:34;;;;;;;3.53;3.00;;;9.80;99.90;;;;;;5073320;28;20216;-64